createdAt,value
2022-12-19T00:00:17.078Z,14.90
2022-12-19T00:00:45.452Z,14.20
2022-12-19T00:01:13.642Z,14.20
2022-12-19T00:01:41.975Z,14.70
2022-12-19T00:02:10.409Z,14.10
2022-12-19T00:02:38.900Z,15.10
2022-12-19T00:03:07.309Z,14.40
2022-12-19T00:03:35.662Z,15.10
2022-12-19T00:04:06.916Z,14.50
2022-12-19T00:04:31.089Z,15.00
2022-12-19T00:04:59.330Z,14.60
2022-12-19T00:05:27.558Z,14.20
2022-12-19T00:05:55.785Z,15.00
2022-12-19T00:06:24.017Z,14.40
2022-12-19T00:06:52.242Z,14.40
2022-12-19T00:07:20.469Z,15.00
2022-12-19T00:07:48.705Z,15.00
2022-12-19T00:08:17.936Z,14.90
2022-12-19T00:08:46.348Z,14.60
2022-12-19T00:09:14.591Z,14.90
2022-12-19T00:09:42.839Z,14.50
2022-12-19T00:10:11.085Z,14.10
2022-12-19T00:10:39.300Z,14.70
2022-12-19T00:11:07.557Z,15.30
2022-12-19T00:11:35.791Z,14.80
2022-12-19T00:12:04.010Z,14.80
2022-12-19T00:12:32.252Z,14.10
2022-12-19T00:13:00.457Z,14.00
2022-12-19T00:13:28.857Z,14.10
2022-12-19T00:13:59.320Z,13.90
2022-12-19T00:14:27.569Z,14.00
2022-12-19T00:14:55.829Z,13.70
2022-12-19T00:15:26.490Z,14.30
2022-12-19T00:15:54.949Z,13.90
2022-12-19T00:16:23.229Z,14.80
2022-12-19T00:16:51.470Z,14.00
2022-12-19T00:17:19.802Z,14.70
2022-12-19T00:17:48.790Z,14.10
2022-12-19T00:18:17.023Z,14.60
2022-12-19T00:18:45.259Z,13.20
2022-12-19T00:19:13.490Z,13.90
2022-12-19T00:19:41.719Z,13.50
2022-12-19T00:20:10.282Z,13.70
2022-12-19T00:20:39.980Z,13.50
2022-12-19T00:21:08.202Z,13.30
2022-12-19T00:21:36.438Z,13.70
2022-12-19T00:22:09.625Z,13.90
2022-12-19T00:22:33.191Z,13.60
2022-12-19T00:23:01.408Z,13.30
2022-12-19T00:23:29.645Z,13.30
2022-12-19T00:23:57.908Z,13.40
2022-12-19T00:24:26.143Z,14.00
2022-12-19T00:24:54.360Z,13.70
2022-12-19T00:25:22.657Z,13.80
2022-12-19T00:25:51.799Z,13.50
2022-12-19T00:26:20.430Z,13.90
2022-12-19T00:26:48.655Z,13.70
2022-12-19T00:27:16.890Z,13.00
2022-12-19T00:27:45.108Z,13.70
2022-12-19T00:28:13.330Z,13.30
2022-12-19T00:28:41.588Z,13.50
2022-12-19T00:29:14.034Z,13.80
2022-12-19T00:29:37.033Z,14.10
2022-12-19T00:30:05.511Z,13.40
2022-12-19T00:30:33.780Z,13.40
2022-12-19T00:31:02.128Z,13.70
2022-12-19T00:31:30.428Z,12.80
2022-12-19T00:31:58.743Z,12.80
2022-12-19T00:32:26.960Z,13.20
2022-12-19T00:32:55.202Z,12.80
2022-12-19T00:33:23.443Z,13.00
2022-12-19T00:33:51.657Z,13.60
2022-12-19T00:34:19.880Z,12.60
2022-12-19T00:34:48.097Z,12.90
2022-12-19T00:35:16.328Z,13.70
2022-12-19T00:35:44.591Z,12.90
2022-12-19T00:36:12.824Z,13.10
2022-12-19T00:36:41.063Z,12.90
2022-12-19T00:37:09.275Z,12.80
2022-12-19T00:37:38.433Z,13.00
2022-12-19T00:38:06.738Z,12.90
2022-12-19T00:38:34.958Z,13.00
2022-12-19T00:39:07.944Z,12.30
2022-12-19T00:39:31.717Z,12.90
2022-12-19T00:39:59.959Z,13.50
2022-12-19T00:40:28.189Z,12.80
2022-12-19T00:40:56.449Z,13.20
2022-12-19T00:41:24.679Z,13.60
2022-12-19T00:41:52.910Z,12.60
2022-12-19T00:42:21.138Z,13.60
2022-12-19T00:42:53.549Z,12.80
2022-12-19T00:43:16.402Z,12.40
2022-12-19T00:43:44.648Z,12.70
2022-12-19T00:44:12.910Z,12.90
2022-12-19T00:44:42.052Z,13.40
2022-12-19T00:45:10.269Z,12.20
2022-12-19T00:45:38.593Z,12.70
2022-12-19T00:46:07.029Z,13.50
2022-12-19T00:46:35.287Z,13.00
2022-12-19T00:47:03.482Z,12.70
2022-12-19T00:47:31.716Z,12.60
2022-12-19T00:47:59.931Z,13.20
2022-12-19T00:48:28.164Z,13.00
2022-12-19T00:48:56.379Z,14.10
2022-12-19T00:49:24.624Z,13.00
2022-12-19T00:49:52.865Z,13.50
2022-12-19T00:50:21.069Z,13.50
2022-12-19T00:50:49.299Z,13.20
2022-12-19T00:51:17.589Z,13.20
2022-12-19T00:51:45.834Z,13.30
2022-12-19T00:52:14.059Z,13.40
2022-12-19T00:52:42.290Z,13.20
2022-12-19T00:53:10.545Z,13.70
2022-12-19T00:53:38.779Z,13.10
2022-12-19T00:54:07.961Z,14.40
2022-12-19T00:54:36.807Z,12.90
2022-12-19T00:55:06.802Z,13.00
2022-12-19T00:55:33.709Z,12.40
2022-12-19T00:56:01.940Z,12.50
2022-12-19T00:56:30.231Z,12.30
2022-12-19T00:56:58.472Z,12.70
2022-12-19T00:57:26.700Z,13.10
2022-12-19T00:57:54.929Z,12.50
2022-12-19T00:58:21.258Z,13.10
2022-12-19T00:58:50.460Z,13.30
2022-12-19T00:59:21.719Z,13.00
2022-12-19T00:59:47.747Z,12.90
2022-12-19T01:00:15.997Z,12.80
2022-12-19T01:00:44.795Z,12.80
2022-12-19T01:01:13.248Z,13.20
2022-12-19T01:01:43.550Z,12.90
2022-12-19T01:02:12.745Z,13.20
2022-12-19T01:02:41.161Z,12.60
2022-12-19T01:03:09.481Z,12.80
2022-12-19T01:03:39.251Z,12.50
2022-12-19T01:04:41.341Z,12.70
2022-12-19T01:05:04.574Z,13.20
2022-12-19T01:05:32.748Z,12.50
2022-12-19T01:06:01.360Z,12.90
2022-12-19T01:06:30.047Z,13.00
2022-12-19T01:07:02.007Z,13.30
2022-12-19T01:07:25.439Z,12.90
2022-12-19T01:07:55.401Z,13.00
2022-12-19T01:08:25.344Z,12.70
2022-12-19T01:08:54.469Z,13.60
2022-12-19T01:09:22.708Z,12.50
2022-12-19T01:09:50.939Z,12.30
2022-12-19T01:10:19.549Z,12.70
2022-12-19T01:10:47.769Z,12.80
2022-12-19T01:11:16.003Z,12.40
2022-12-19T01:11:44.228Z,12.70
2022-12-19T01:12:12.491Z,12.50
2022-12-19T01:12:40.708Z,12.40
2022-12-19T01:13:08.928Z,12.40
2022-12-19T01:13:37.164Z,12.40
2022-12-19T01:14:07.456Z,12.80
2022-12-19T01:14:35.684Z,12.00
2022-12-19T01:15:05.307Z,12.90
2022-12-19T01:15:33.663Z,12.30
2022-12-19T01:16:01.198Z,12.30
2022-12-19T01:16:30.347Z,11.70
2022-12-19T01:16:58.839Z,12.50
2022-12-19T01:17:27.088Z,13.00
2022-12-19T01:17:55.311Z,13.10
2022-12-19T01:18:23.561Z,12.30
2022-12-19T01:18:51.784Z,12.70
2022-12-19T01:19:20.023Z,13.00
2022-12-19T01:19:48.248Z,12.50
2022-12-19T01:20:16.459Z,12.70
2022-12-19T01:20:45.799Z,13.10
2022-12-19T01:21:14.022Z,12.50
2022-12-19T01:21:42.713Z,11.50
2022-12-19T01:22:12.208Z,12.30
2022-12-19T01:22:41.259Z,12.00
2022-12-19T01:23:09.487Z,12.10
2022-12-19T01:23:37.710Z,12.20
2022-12-19T01:24:05.972Z,12.70
2022-12-19T01:24:34.190Z,12.60
2022-12-19T01:25:02.409Z,12.20
2022-12-19T01:25:30.641Z,12.40
2022-12-19T01:25:58.883Z,12.00
2022-12-19T01:26:27.090Z,11.80
2022-12-19T01:26:55.318Z,12.10
2022-12-19T01:27:23.556Z,12.60
2022-12-19T01:27:51.799Z,12.20
2022-12-19T01:28:20.030Z,12.30
2022-12-19T01:28:50.264Z,11.50
2022-12-19T01:29:17.789Z,11.90
2022-12-19T01:29:52.675Z,12.20
2022-12-19T01:30:14.561Z,12.40
2022-12-19T01:30:43.582Z,12.50
2022-12-19T01:31:12.786Z,12.00
2022-12-19T01:31:43.515Z,12.80
2022-12-19T01:32:11.768Z,12.00
2022-12-19T01:32:39.997Z,12.60
2022-12-19T01:33:08.248Z,13.10
2022-12-19T01:33:36.498Z,12.50
2022-12-19T01:34:06.404Z,11.60
2022-12-19T01:34:34.621Z,12.60
2022-12-19T01:35:02.839Z,12.90
2022-12-19T01:35:31.088Z,11.80
2022-12-19T01:35:59.289Z,11.90
2022-12-19T01:36:27.517Z,12.70
2022-12-19T01:36:55.747Z,12.60
2022-12-19T01:37:23.971Z,12.40
2022-12-19T01:37:52.200Z,12.90
2022-12-19T01:38:19.749Z,11.50
2022-12-19T01:38:47.981Z,12.50
2022-12-19T01:39:16.199Z,12.10
2022-12-19T01:39:44.938Z,12.60
2022-12-19T01:40:14.338Z,11.70
2022-12-19T01:40:42.564Z,11.90
2022-12-19T01:41:10.793Z,12.50
2022-12-19T01:41:39.009Z,11.80
2022-12-19T01:42:07.229Z,12.00
2022-12-19T01:42:35.483Z,12.50
2022-12-19T01:43:03.699Z,12.30
2022-12-19T01:43:31.960Z,12.20
2022-12-19T01:44:00.199Z,12.60
2022-12-19T01:44:28.441Z,12.10
2022-12-19T01:44:56.689Z,12.10
2022-12-19T01:45:33.140Z,12.30
2022-12-19T01:45:55.195Z,12.30
2022-12-19T01:46:23.442Z,11.90
2022-12-19T01:46:54.680Z,12.10
2022-12-19T01:47:22.869Z,12.10
2022-12-19T01:47:53.546Z,11.90
2022-12-19T01:48:21.991Z,12.50
2022-12-19T01:48:50.239Z,12.10
2022-12-19T01:49:18.479Z,12.50
2022-12-19T01:49:44.620Z,12.00
2022-12-19T01:50:12.840Z,12.70
2022-12-19T01:50:44.955Z,12.80
2022-12-19T01:51:09.593Z,12.20
2022-12-19T01:51:38.078Z,12.30
2022-12-19T01:52:06.300Z,11.30
2022-12-19T01:52:35.887Z,11.70
2022-12-19T01:53:04.117Z,12.00
2022-12-19T01:53:32.338Z,12.40
2022-12-19T01:54:00.600Z,12.40
2022-12-19T01:54:28.839Z,12.30
2022-12-19T01:54:57.075Z,12.40
2022-12-19T01:55:27.039Z,12.10
2022-12-19T01:55:55.289Z,13.00
2022-12-19T01:56:24.175Z,12.20
2022-12-19T01:56:52.396Z,12.40
2022-12-19T01:57:20.863Z,12.60
2022-12-19T01:57:49.082Z,12.50
2022-12-19T01:58:17.358Z,12.60
2022-12-19T01:58:45.593Z,12.60
2022-12-19T01:59:13.888Z,12.30
2022-12-19T01:59:42.099Z,12.40
2022-12-19T02:00:10.337Z,12.20
2022-12-19T02:00:37.857Z,13.80
2022-12-19T02:01:06.614Z,12.20
2022-12-19T02:01:35.195Z,13.00
2022-12-19T02:02:05.786Z,12.10
2022-12-19T02:02:34.197Z,12.60
2022-12-19T02:03:02.561Z,12.40
2022-12-19T02:03:30.797Z,12.60
2022-12-19T02:03:59.094Z,13.20
2022-12-19T02:04:29.390Z,12.60
2022-12-19T02:04:55.876Z,12.90
2022-12-19T02:05:24.111Z,12.70
2022-12-19T02:05:52.334Z,12.90
2022-12-19T02:06:20.570Z,12.70
2022-12-19T02:06:48.805Z,12.90
2022-12-19T02:07:17.036Z,12.10
2022-12-19T02:07:45.248Z,12.40
2022-12-19T02:08:13.476Z,12.20
2022-12-19T02:08:41.702Z,12.50
2022-12-19T02:09:09.917Z,13.40
2022-12-19T02:09:38.179Z,12.20
2022-12-19T02:10:06.419Z,13.00
2022-12-19T02:10:34.646Z,12.40
2022-12-19T02:11:02.894Z,12.70
2022-12-19T02:11:31.358Z,12.60
2022-12-19T02:11:59.621Z,12.40
2022-12-19T02:12:27.867Z,12.70
2022-12-19T02:12:56.095Z,12.70
2022-12-19T02:13:24.321Z,12.60
2022-12-19T02:13:52.559Z,12.90
2022-12-19T02:14:20.820Z,12.70
2022-12-19T02:14:49.074Z,12.00
2022-12-19T02:15:18.512Z,13.10
2022-12-19T02:15:46.744Z,13.00
2022-12-19T02:16:15.060Z,13.10
2022-12-19T02:16:43.357Z,12.90
2022-12-19T02:17:11.693Z,12.60
2022-12-19T02:17:39.874Z,12.20
2022-12-19T02:18:08.102Z,12.50
2022-12-19T02:18:36.343Z,13.00
2022-12-19T02:19:04.582Z,12.70
2022-12-19T02:19:32.813Z,13.10
2022-12-19T02:20:01.092Z,12.90
2022-12-19T02:20:30.124Z,12.60
2022-12-19T02:20:58.423Z,12.70
2022-12-19T02:21:26.667Z,12.30
2022-12-19T02:21:55.180Z,12.50
2022-12-19T02:22:23.384Z,13.20
2022-12-19T02:22:51.604Z,12.80
2022-12-19T02:23:21.562Z,13.30
2022-12-19T02:23:51.493Z,12.70
2022-12-19T02:24:19.021Z,13.30
2022-12-19T02:24:47.228Z,13.50
2022-12-19T02:25:15.874Z,12.50
2022-12-19T02:25:44.130Z,13.00
2022-12-19T02:26:12.355Z,13.90
2022-12-19T02:26:40.590Z,13.80
2022-12-19T02:27:08.815Z,12.70
2022-12-19T02:27:40.230Z,13.00
2022-12-19T02:28:03.225Z,12.60
2022-12-19T02:28:31.470Z,13.20
2022-12-19T02:28:59.709Z,12.70
2022-12-19T02:29:27.956Z,13.60
2022-12-19T02:29:56.186Z,13.10
2022-12-19T02:30:24.490Z,12.80
2022-12-19T02:30:52.712Z,13.10
2022-12-19T02:31:20.977Z,13.20
2022-12-19T02:31:49.316Z,12.80
2022-12-19T02:32:17.666Z,13.50
2022-12-19T02:32:46.629Z,13.60
2022-12-19T02:33:14.859Z,12.40
2022-12-19T02:33:43.094Z,12.20
2022-12-19T02:34:11.319Z,13.10
2022-12-19T02:34:44.211Z,13.20
2022-12-19T02:35:08.068Z,13.40
2022-12-19T02:35:36.367Z,13.30
2022-12-19T02:36:04.595Z,13.40
2022-12-19T02:36:38.131Z,13.50
2022-12-19T02:37:01.344Z,13.40
2022-12-19T02:37:29.575Z,13.20
2022-12-19T02:37:59.006Z,13.00
2022-12-19T02:38:27.727Z,13.50
2022-12-19T02:38:55.953Z,13.40
2022-12-19T02:39:24.173Z,14.10
2022-12-19T02:39:52.419Z,14.10
2022-12-19T02:40:20.636Z,13.30
2022-12-19T02:40:48.922Z,13.60
2022-12-19T02:41:16.375Z,13.80
2022-12-19T02:41:44.615Z,13.30
2022-12-19T02:42:12.861Z,12.90
2022-12-19T02:42:42.583Z,13.00
2022-12-19T02:43:10.795Z,13.90
2022-12-19T02:43:39.025Z,13.40
2022-12-19T02:44:07.255Z,13.40
2022-12-19T02:44:35.486Z,12.80
2022-12-19T02:45:03.723Z,12.90
2022-12-19T02:45:31.974Z,13.00
2022-12-19T02:46:00.263Z,12.50
2022-12-19T02:46:28.548Z,12.70
2022-12-19T02:46:56.819Z,12.80
2022-12-19T02:47:25.152Z,13.40
2022-12-19T02:47:53.340Z,12.70
2022-12-19T02:48:21.548Z,12.40
2022-12-19T02:48:49.767Z,14.00
2022-12-19T02:49:24.980Z,13.80
2022-12-19T02:49:46.513Z,13.00
2022-12-19T02:50:14.758Z,13.00
2022-12-19T02:50:42.992Z,13.60
2022-12-19T02:51:12.709Z,13.40
2022-12-19T02:51:40.928Z,13.10
2022-12-19T02:52:09.178Z,13.40
2022-12-19T02:52:37.387Z,13.80
2022-12-19T02:53:05.620Z,12.50
2022-12-19T02:53:33.841Z,12.20
2022-12-19T02:54:02.109Z,13.30
2022-12-19T02:54:30.328Z,13.20
2022-12-19T02:54:58.566Z,13.30
2022-12-19T02:55:26.821Z,13.50
2022-12-19T02:55:55.053Z,13.10
2022-12-19T02:56:23.301Z,13.40
2022-12-19T02:56:51.521Z,14.00
2022-12-19T02:57:19.768Z,14.20
2022-12-19T02:57:47.984Z,13.20
2022-12-19T02:58:16.251Z,13.90
2022-12-19T02:58:44.507Z,13.40
2022-12-19T02:59:15.095Z,13.30
2022-12-19T02:59:43.315Z,13.40
2022-12-19T03:00:11.553Z,13.20
2022-12-19T03:00:39.779Z,12.80
2022-12-19T03:01:08.077Z,14.10
2022-12-19T03:01:36.490Z,13.40
2022-12-19T03:02:04.982Z,12.70
2022-12-19T03:02:33.538Z,13.40
2022-12-19T03:03:01.984Z,13.20
2022-12-19T03:03:30.220Z,13.20
2022-12-19T03:03:58.437Z,13.20
2022-12-19T03:04:26.660Z,13.20
2022-12-19T03:04:54.889Z,13.40
2022-12-19T03:05:23.111Z,13.50
2022-12-19T03:05:51.362Z,13.90
2022-12-19T03:06:19.563Z,13.10
2022-12-19T03:06:47.840Z,12.80
2022-12-19T03:07:17.164Z,13.20
2022-12-19T03:07:45.396Z,12.60
2022-12-19T03:08:13.624Z,13.20
2022-12-19T03:08:41.880Z,13.00
2022-12-19T03:09:10.120Z,13.40
2022-12-19T03:09:38.342Z,13.40
2022-12-19T03:10:06.569Z,13.40
2022-12-19T03:10:34.792Z,13.00
2022-12-19T03:11:03.012Z,13.10
2022-12-19T03:11:31.254Z,13.60
2022-12-19T03:11:59.527Z,13.10
2022-12-19T03:12:27.734Z,13.10
2022-12-19T03:12:55.969Z,13.40
2022-12-19T03:13:25.918Z,13.20
2022-12-19T03:13:54.148Z,13.20
2022-12-19T03:14:22.357Z,12.60
2022-12-19T03:14:50.554Z,12.90
2022-12-19T03:15:18.785Z,13.10
2022-12-19T03:15:47.020Z,12.90
2022-12-19T03:16:15.324Z,13.70
2022-12-19T03:16:43.596Z,13.30
2022-12-19T03:17:11.869Z,13.40
2022-12-19T03:17:40.223Z,13.70
2022-12-19T03:18:08.416Z,14.10
2022-12-19T03:18:36.645Z,13.80
2022-12-19T03:19:04.879Z,13.60
2022-12-19T03:19:33.086Z,13.30
2022-12-19T03:20:01.333Z,13.70
2022-12-19T03:20:29.538Z,13.50
2022-12-19T03:20:57.755Z,13.60
2022-12-19T03:21:25.987Z,13.40
2022-12-19T03:21:54.231Z,13.50
2022-12-19T03:22:22.524Z,13.30
2022-12-19T03:22:50.703Z,13.00
2022-12-19T03:23:18.938Z,13.40
2022-12-19T03:23:47.146Z,13.30
2022-12-19T03:24:15.368Z,13.40
2022-12-19T03:24:44.172Z,13.50
2022-12-19T03:25:12.345Z,13.20
2022-12-19T03:25:41.208Z,13.00
2022-12-19T03:26:09.437Z,14.30
2022-12-19T03:26:37.661Z,13.10
2022-12-19T03:27:05.882Z,13.50
2022-12-19T03:27:34.526Z,13.80
2022-12-19T03:28:02.758Z,13.80
2022-12-19T03:28:30.986Z,13.40
2022-12-19T03:28:59.226Z,13.60
2022-12-19T03:29:27.453Z,13.70
2022-12-19T03:29:55.670Z,13.70
2022-12-19T03:30:23.917Z,13.10
2022-12-19T03:30:52.173Z,13.40
2022-12-19T03:31:20.496Z,14.30
2022-12-19T03:31:48.714Z,13.30
2022-12-19T03:32:16.918Z,13.70
2022-12-19T03:32:45.293Z,13.60
2022-12-19T03:33:13.484Z,12.50
2022-12-19T03:33:41.722Z,13.80
2022-12-19T03:34:09.939Z,13.60
2022-12-19T03:34:38.430Z,13.30
2022-12-19T03:35:06.941Z,13.60
2022-12-19T03:35:35.875Z,14.20
2022-12-19T03:36:04.088Z,13.60
2022-12-19T03:36:32.323Z,13.80
2022-12-19T03:37:00.548Z,13.30
2022-12-19T03:37:28.797Z,13.60
2022-12-19T03:37:57.057Z,13.20
2022-12-19T03:38:25.261Z,12.70
2022-12-19T03:38:53.492Z,13.80
2022-12-19T03:39:21.724Z,13.20
2022-12-19T03:39:49.951Z,14.00
2022-12-19T03:40:18.171Z,12.80
2022-12-19T03:40:46.421Z,13.50
2022-12-19T03:41:14.640Z,13.80
2022-12-19T03:41:42.841Z,13.70
2022-12-19T03:42:11.143Z,13.30
2022-12-19T03:42:39.512Z,13.90
2022-12-19T03:43:08.032Z,13.20
2022-12-19T03:43:36.605Z,13.30
2022-12-19T03:44:04.813Z,13.70
2022-12-19T03:44:33.041Z,13.50
2022-12-19T03:45:01.281Z,13.90
2022-12-19T03:45:29.553Z,13.50
2022-12-19T03:45:57.853Z,13.40
2022-12-19T03:46:26.133Z,13.40
2022-12-19T03:46:54.341Z,13.10
2022-12-19T03:47:22.575Z,13.50
2022-12-19T03:47:50.941Z,13.50
2022-12-19T03:48:19.865Z,13.60
2022-12-19T03:48:48.104Z,13.80
2022-12-19T03:49:16.332Z,13.90
2022-12-19T03:49:44.532Z,13.40
2022-12-19T03:50:12.764Z,13.40
2022-12-19T03:50:40.994Z,13.40
2022-12-19T03:51:09.228Z,13.40
2022-12-19T03:51:37.455Z,13.10
2022-12-19T03:52:05.701Z,14.30
2022-12-19T03:52:33.914Z,13.60
2022-12-19T03:53:02.124Z,13.70
2022-12-19T03:53:30.396Z,14.00
2022-12-19T03:53:58.636Z,13.10
2022-12-19T03:54:26.873Z,14.00
2022-12-19T03:54:55.126Z,13.60
2022-12-19T03:55:23.365Z,14.30
2022-12-19T03:55:53.372Z,13.50
2022-12-19T03:56:21.599Z,14.20
2022-12-19T03:56:49.833Z,14.20
2022-12-19T03:57:18.679Z,14.30
2022-12-19T03:57:46.895Z,14.10
2022-12-19T03:58:15.156Z,13.60
2022-12-19T03:58:43.480Z,14.50
2022-12-19T03:59:11.674Z,13.20
2022-12-19T03:59:39.909Z,14.40
2022-12-19T04:00:08.141Z,13.50
2022-12-19T04:00:36.368Z,13.90
2022-12-19T04:01:04.644Z,14.40
2022-12-19T04:01:32.952Z,14.30
2022-12-19T04:02:01.362Z,13.60
2022-12-19T04:02:29.734Z,14.00
2022-12-19T04:02:58.120Z,14.70
2022-12-19T04:03:26.429Z,14.60
2022-12-19T04:03:54.747Z,13.90
2022-12-19T04:04:22.961Z,14.60
2022-12-19T04:04:51.187Z,14.50
2022-12-19T04:05:19.426Z,13.50
2022-12-19T04:05:47.657Z,14.00
2022-12-19T04:06:15.912Z,14.30
2022-12-19T04:06:44.135Z,13.10
2022-12-19T04:07:12.378Z,13.50
2022-12-19T04:07:40.591Z,13.30
2022-12-19T04:08:08.821Z,14.50
2022-12-19T04:08:37.044Z,13.80
2022-12-19T04:09:05.317Z,13.30
2022-12-19T04:09:33.571Z,13.20
2022-12-19T04:10:01.829Z,14.00
2022-12-19T04:10:30.061Z,13.50
2022-12-19T04:10:58.265Z,14.00
2022-12-19T04:11:26.486Z,13.50
2022-12-19T04:11:54.738Z,13.50
2022-12-19T04:12:22.952Z,13.90
2022-12-19T04:12:51.199Z,14.10
2022-12-19T04:13:19.429Z,14.00
2022-12-19T04:13:47.661Z,14.00
2022-12-19T04:14:15.926Z,13.90
2022-12-19T04:14:44.160Z,14.50
2022-12-19T04:15:13.142Z,14.20
2022-12-19T04:15:41.443Z,14.10
2022-12-19T04:16:09.803Z,14.00
2022-12-19T04:16:38.071Z,14.20
2022-12-19T04:17:06.287Z,13.90
2022-12-19T04:17:34.507Z,14.00
2022-12-19T04:18:02.872Z,13.50
2022-12-19T04:18:31.055Z,13.80
2022-12-19T04:18:59.290Z,14.40
2022-12-19T04:19:27.535Z,13.50
2022-12-19T04:19:55.766Z,14.20
2022-12-19T04:20:23.998Z,13.80
2022-12-19T04:20:52.259Z,14.00
2022-12-19T04:21:20.506Z,14.10
2022-12-19T04:21:48.710Z,13.80
2022-12-19T04:22:17.380Z,14.80
2022-12-19T04:22:45.616Z,14.20
2022-12-19T04:23:13.856Z,13.60
2022-12-19T04:23:42.088Z,13.80
2022-12-19T04:24:10.347Z,14.00
2022-12-19T04:24:39.339Z,13.50
2022-12-19T04:25:06.851Z,13.60
2022-12-19T04:25:36.788Z,13.10
2022-12-19T04:26:05.039Z,13.40
2022-12-19T04:26:33.247Z,14.50
2022-12-19T04:27:01.496Z,14.10
2022-12-19T04:27:29.734Z,13.90
2022-12-19T04:27:57.953Z,14.10
2022-12-19T04:28:26.839Z,13.80
2022-12-19T04:28:55.123Z,13.80
2022-12-19T04:29:23.354Z,14.00
2022-12-19T04:29:51.837Z,14.10
2022-12-19T04:30:20.109Z,13.30
2022-12-19T04:30:48.339Z,14.20
2022-12-19T04:31:16.634Z,14.10
2022-12-19T04:31:44.846Z,13.70
2022-12-19T04:32:13.069Z,13.00
2022-12-19T04:32:41.290Z,13.70
2022-12-19T04:33:09.636Z,13.80
2022-12-19T04:33:37.833Z,14.10
2022-12-19T04:34:06.048Z,14.10
2022-12-19T04:34:36.035Z,14.20
2022-12-19T04:35:01.536Z,13.90
2022-12-19T04:35:29.766Z,14.00
2022-12-19T04:35:57.996Z,14.20
2022-12-19T04:36:26.227Z,14.00
2022-12-19T04:36:54.460Z,14.30
2022-12-19T04:37:22.678Z,14.10
2022-12-19T04:37:50.909Z,14.30
2022-12-19T04:38:19.136Z,14.60
2022-12-19T04:38:47.357Z,13.80
2022-12-19T04:39:15.596Z,14.10
2022-12-19T04:39:43.818Z,14.50
2022-12-19T04:40:12.095Z,13.90
2022-12-19T04:40:41.665Z,13.80
2022-12-19T04:41:10.043Z,14.10
2022-12-19T04:41:38.300Z,14.10
2022-12-19T04:42:06.519Z,14.10
2022-12-19T04:42:35.540Z,14.20
2022-12-19T04:43:03.756Z,13.60
2022-12-19T04:43:32.775Z,14.80
2022-12-19T04:44:01.007Z,14.10
2022-12-19T04:44:29.238Z,14.50
2022-12-19T04:44:57.477Z,13.90
2022-12-19T04:45:25.715Z,14.00
2022-12-19T04:45:57.592Z,14.10
2022-12-19T04:46:20.539Z,14.20
2022-12-19T04:46:48.792Z,14.40
2022-12-19T04:47:16.996Z,13.60
2022-12-19T04:47:45.241Z,14.10
2022-12-19T04:48:13.574Z,14.10
2022-12-19T04:48:41.791Z,14.40
2022-12-19T04:49:10.027Z,13.90
2022-12-19T04:49:38.247Z,14.40
2022-12-19T04:50:06.455Z,14.10
2022-12-19T04:50:34.715Z,14.20
2022-12-19T04:51:02.951Z,14.70
2022-12-19T04:51:31.194Z,14.00
2022-12-19T04:51:59.425Z,14.00
2022-12-19T04:52:27.623Z,13.80
2022-12-19T04:52:57.262Z,14.20
2022-12-19T04:53:25.556Z,14.20
2022-12-19T04:53:53.798Z,14.30
2022-12-19T04:54:22.033Z,14.50
2022-12-19T04:54:50.261Z,13.70
2022-12-19T04:55:18.494Z,14.40
2022-12-19T04:55:46.745Z,14.50
2022-12-19T04:56:15.007Z,13.40
2022-12-19T04:56:43.236Z,14.70
2022-12-19T04:57:11.467Z,14.10
2022-12-19T04:57:39.698Z,13.90
2022-12-19T04:58:07.936Z,14.10
2022-12-19T04:58:36.150Z,14.40
2022-12-19T04:59:04.378Z,14.50
2022-12-19T04:59:32.622Z,14.20
2022-12-19T05:00:00.816Z,14.40
2022-12-19T05:00:29.219Z,13.90
2022-12-19T05:00:57.465Z,14.40
2022-12-19T05:01:25.914Z,14.10
2022-12-19T05:01:54.257Z,14.30
2022-12-19T05:02:22.778Z,13.60
2022-12-19T05:02:51.295Z,14.60
2022-12-19T05:03:19.881Z,14.90
2022-12-19T05:03:54.220Z,13.60
2022-12-19T05:04:16.661Z,14.40
2022-12-19T05:04:44.895Z,14.50
2022-12-19T05:05:13.120Z,13.20
2022-12-19T05:05:42.108Z,14.10
2022-12-19T05:06:10.935Z,14.30
2022-12-19T05:06:39.170Z,14.90
2022-12-19T05:07:07.407Z,14.20
2022-12-19T05:07:35.624Z,14.30
2022-12-19T05:08:03.855Z,14.70
2022-12-19T05:08:32.104Z,13.90
2022-12-19T05:09:00.335Z,14.40
2022-12-19T05:09:28.573Z,14.60
2022-12-19T05:09:56.796Z,13.80
2022-12-19T05:10:25.033Z,14.10
2022-12-19T05:10:53.255Z,14.00
2022-12-19T05:11:21.505Z,14.00
2022-12-19T05:11:49.767Z,14.60
2022-12-19T05:12:17.986Z,14.20
2022-12-19T05:12:46.264Z,14.40
2022-12-19T05:13:14.509Z,13.80
2022-12-19T05:13:43.064Z,14.50
2022-12-19T05:14:11.334Z,13.70
2022-12-19T05:14:39.544Z,14.60
2022-12-19T05:15:07.745Z,14.30
2022-12-19T05:15:36.040Z,13.80
2022-12-19T05:16:04.331Z,13.50
2022-12-19T05:16:32.657Z,13.70
2022-12-19T05:17:01.311Z,13.80
2022-12-19T05:17:29.944Z,14.30
2022-12-19T05:17:58.179Z,14.70
2022-12-19T05:18:26.540Z,14.50
2022-12-19T05:18:54.749Z,13.90
2022-12-19T05:19:22.954Z,14.80
2022-12-19T05:19:51.184Z,14.00
2022-12-19T05:20:19.420Z,14.50
2022-12-19T05:20:47.634Z,14.50
2022-12-19T05:21:15.971Z,13.40
2022-12-19T05:21:44.258Z,13.50
2022-12-19T05:22:12.463Z,14.20
2022-12-19T05:22:40.722Z,13.60
2022-12-19T05:23:16.232Z,13.70
2022-12-19T05:23:37.434Z,14.00
2022-12-19T05:24:06.283Z,13.90
2022-12-19T05:24:35.813Z,14.40
2022-12-19T05:25:04.147Z,13.40
2022-12-19T05:25:32.373Z,14.00
2022-12-19T05:26:00.611Z,13.40
2022-12-19T05:26:28.834Z,13.80
2022-12-19T05:26:57.094Z,14.90
2022-12-19T05:27:25.339Z,15.00
2022-12-19T05:27:53.565Z,14.10
2022-12-19T05:28:21.784Z,13.70
2022-12-19T05:28:50.018Z,13.80
2022-12-19T05:29:18.220Z,13.70
2022-12-19T05:29:46.462Z,13.90
2022-12-19T05:30:14.742Z,13.80
2022-12-19T05:30:45.610Z,13.70
2022-12-19T05:31:10.459Z,14.10
2022-12-19T05:31:38.730Z,13.40
2022-12-19T05:32:07.902Z,13.70
2022-12-19T05:32:36.116Z,13.90
2022-12-19T05:33:03.628Z,13.90
2022-12-19T05:33:32.236Z,13.80
2022-12-19T05:34:02.173Z,13.50
2022-12-19T05:34:30.433Z,13.90
2022-12-19T05:35:00.452Z,13.80
2022-12-19T05:35:30.425Z,14.00
2022-12-19T05:35:58.643Z,13.90
2022-12-19T05:36:32.255Z,13.90
2022-12-19T05:36:55.427Z,13.80
2022-12-19T05:37:23.732Z,14.50
2022-12-19T05:37:51.943Z,13.10
2022-12-19T05:38:20.163Z,13.70
2022-12-19T05:38:48.424Z,14.10
2022-12-19T05:39:16.905Z,14.10
2022-12-19T05:39:45.115Z,14.30
2022-12-19T05:40:13.456Z,14.40
2022-12-19T05:40:41.678Z,14.00
2022-12-19T05:41:09.905Z,14.70
2022-12-19T05:41:38.169Z,14.30
2022-12-19T05:42:09.691Z,13.80
2022-12-19T05:42:34.926Z,13.90
2022-12-19T05:43:03.162Z,13.60
2022-12-19T05:43:31.370Z,13.90
2022-12-19T05:43:59.595Z,14.40
2022-12-19T05:44:27.825Z,13.50
2022-12-19T05:44:56.063Z,14.50
2022-12-19T05:45:24.300Z,14.30
2022-12-19T05:45:52.523Z,14.60
2022-12-19T05:46:20.803Z,14.80
2022-12-19T05:46:49.085Z,13.80
2022-12-19T05:47:17.301Z,14.00
2022-12-19T05:47:45.552Z,13.70
2022-12-19T05:48:13.781Z,13.90
2022-12-19T05:48:42.129Z,13.80
2022-12-19T05:49:10.863Z,14.70
2022-12-19T05:49:39.105Z,13.70
2022-12-19T05:50:07.330Z,13.60
2022-12-19T05:50:35.563Z,14.40
2022-12-19T05:51:03.804Z,14.50
2022-12-19T05:51:32.038Z,14.00
2022-12-19T05:52:00.255Z,14.10
2022-12-19T05:52:28.720Z,13.70
2022-12-19T05:52:57.090Z,14.60
2022-12-19T05:53:26.230Z,13.60
2022-12-19T05:53:54.510Z,14.80
2022-12-19T05:54:22.745Z,14.00
2022-12-19T05:54:50.944Z,13.90
2022-12-19T05:55:19.172Z,13.90
2022-12-19T05:55:47.403Z,14.00
2022-12-19T05:56:15.656Z,14.00
2022-12-19T05:56:43.890Z,13.90
2022-12-19T05:57:12.140Z,13.60
2022-12-19T05:57:40.393Z,14.10
2022-12-19T05:58:08.669Z,13.90
2022-12-19T05:58:36.913Z,13.70
2022-12-19T05:59:05.147Z,13.00
2022-12-19T05:59:33.383Z,14.00
2022-12-19T06:00:01.622Z,13.60
2022-12-19T06:00:29.841Z,13.30
2022-12-19T06:01:00.854Z,13.30
2022-12-19T06:01:29.309Z,14.30
2022-12-19T06:01:57.640Z,14.10
2022-12-19T06:02:27.727Z,14.10
2022-12-19T06:02:56.160Z,13.90
2022-12-19T06:03:24.501Z,14.50
2022-12-19T06:03:53.003Z,13.90
2022-12-19T06:04:21.254Z,13.90
2022-12-19T06:04:49.466Z,14.50
2022-12-19T06:05:17.757Z,13.80
2022-12-19T06:05:45.994Z,13.00